This is the latest recevied weather packets stored in our database for station/object EA3EH-1. If no packets are shown the sender has not sent any weather packets the latest 10 day(s).
| Time | Temp. | Humidity | Pressure | Rain* | Wind** | Luminosity | Snow |
|---|---|---|---|---|---|---|---|
| 1777103206 | 14.44° C | 51% | 1015 hPa | 0 mm | - | - | - |
| 1777102904 | 14.44° C | 53% | 1015 hPa | 0 mm | - | - | - |
| 1777102307 | 13.89° C | 56% | 1015 hPa | 0 mm | - | - | - |
| 1777100806 | 12.22° C | 61% | 1015 hPa | 0 mm | - | - | - |
| 1777100504 | 12.22° C | 63% | 1015 hPa | 0 mm | - | - | - |
| 1777100206 | 12.22° C | 63% | 1015 hPa | 0 mm | - | - | - |
| 1777099307 | 11.67° C | 68% | 1015 hPa | 0 mm | - | - | - |
| 1777097206 | 9.44° C | 73% | 1015 hPa | 0 mm | - | - | - |
| 1777094509 | 8.89° C | 72% | 1015 hPa | 0 mm | - | - | - |
| 1777094208 | 8.89° C | 73% | 1015 hPa | 0 mm | - | - | - |
| 1777093906 | 8.89° C | 73% | 1015 hPa | 0 mm | - | - | - |
| 1777093606 | 8.89° C | 72% | 1014 hPa | 0 mm | - | - | - |
| 1777093308 | 8.89° C | 71% | 1014 hPa | 0 mm | - | - | - |
| 1777093008 | 8.89° C | 70% | 1014 hPa | 0 mm | - | - | - |
| 1777092706 | 8.89° C | 70% | 1014 hPa | 0 mm | - | - | - |
| 1777092108 | 8.33° C | 69% | 1014 hPa | 0 mm | - | - | - |
| 1777091507 | 8.89° C | 69% | 1014 hPa | 0 mm | - | - | - |
| 1777091205 | 8.89° C | 70% | 1014 hPa | 0 mm | - | - | - |
| 1777090604 | 8.89° C | 70% | 1014 hPa | 0 mm | - | - | - |
| 1777090007 | 9.44° C | 70% | 1014 hPa | 0 mm | - | - | - |
| 1777089407 | 9.44° C | 69% | 1014 hPa | 0 mm | - | - | - |
| 1777087608 | 9.44° C | 70% | 1014 hPa | 0 mm | - | - | - |
| 1777087308 | 9.44° C | 70% | 1014 hPa | 0 mm | - | - | - |
| 1777086707 | 8.89° C | 70% | 1014 hPa | 0 mm | - | - | - |
| 1777085806 | 9.44° C | 70% | 1014 hPa | 0 mm | - | - | - |
* Rain latest hour (hover to see other rain measurements)
** Current wind speed in m/s (hover to see current wind gust speed)